createdAt,value
2018-01-30T00:00:06.693Z,0
2018-01-30T00:01:08.545Z,0
2018-01-30T00:02:22.672Z,0
2018-01-30T00:03:24.541Z,0
2018-01-30T00:04:26.392Z,0
2018-01-30T00:05:28.241Z,0
2018-01-30T00:06:30.033Z,0
2018-01-30T00:07:31.844Z,0
2018-01-30T00:08:33.715Z,0
2018-01-30T00:09:35.584Z,0
2018-01-30T00:10:37.455Z,0
2018-01-30T00:11:51.595Z,0
2018-01-30T00:12:53.449Z,0
2018-01-30T00:13:55.300Z,0
2018-01-30T00:14:57.149Z,0
2018-01-30T00:15:58.940Z,0
2018-01-30T00:17:00.755Z,0
2018-01-30T00:18:02.644Z,0
2018-01-30T00:19:04.492Z,0
2018-01-30T00:20:06.363Z,0
2018-01-30T00:21:20.486Z,0
2018-01-30T00:22:22.358Z,0
2018-01-30T00:23:24.228Z,0
2018-01-30T00:24:26.076Z,0
2018-01-30T00:25:27.864Z,0
2018-01-30T00:26:29.672Z,0
2018-01-30T00:27:31.542Z,0
2018-01-30T00:28:33.392Z,0
2018-01-30T00:29:35.261Z,0
2018-01-30T00:30:49.401Z,0
2018-01-30T00:31:51.257Z,0
2018-01-30T00:32:53.111Z,0
2018-01-30T00:33:54.980Z,0
2018-01-30T00:34:56.789Z,0
2018-01-30T00:35:58.583Z,0
2018-01-30T00:37:00.451Z,0
2018-01-30T00:38:02.305Z,0
2018-01-30T00:39:04.152Z,0
2018-01-30T00:40:18.274Z,0
2018-01-30T00:41:20.133Z,0
2018-01-30T00:42:22.003Z,0
2018-01-30T00:43:23.848Z,0
2018-01-30T00:44:25.638Z,0
2018-01-30T00:45:27.431Z,0
2018-01-30T00:46:29.283Z,0
2018-01-30T00:47:31.126Z,0
2018-01-30T00:48:32.973Z,0
2018-01-30T00:49:47.149Z,0
2018-01-30T00:50:49.014Z,0
2018-01-30T00:51:50.862Z,0
2018-01-30T00:52:52.708Z,0
2018-01-30T00:53:54.501Z,0
2018-01-30T00:54:56.294Z,0
2018-01-30T00:55:58.165Z,0
2018-01-30T00:57:00.038Z,0
2018-01-30T00:58:01.908Z,0
2018-01-30T00:59:16.048Z,0
2018-01-30T01:00:17.899Z,0
2018-01-30T01:01:19.753Z,0
2018-01-30T01:02:21.609Z,0
2018-01-30T01:03:23.418Z,0
2018-01-30T01:04:25.232Z,0
2018-01-30T01:05:27.099Z,0
2018-01-30T01:06:28.950Z,0
2018-01-30T01:07:30.821Z,0
2018-01-30T01:08:44.959Z,0
2018-01-30T01:09:46.815Z,0
2018-01-30T01:10:48.667Z,0
2018-01-30T01:11:50.521Z,0
2018-01-30T01:12:52.328Z,0
2018-01-30T01:13:54.115Z,0
2018-01-30T01:14:55.968Z,0
2018-01-30T01:15:57.815Z,0
2018-01-30T01:16:59.665Z,0
2018-01-30T01:18:13.806Z,0
2018-01-30T01:19:15.674Z,0
2018-01-30T01:20:17.523Z,0
2018-01-30T01:21:19.375Z,0
2018-01-30T01:22:21.184Z,0
2018-01-30T01:23:22.969Z,0
2018-01-30T01:24:24.821Z,0
2018-01-30T01:25:26.672Z,0
2018-01-30T01:26:28.539Z,0
2018-01-30T01:27:42.661Z,0
2018-01-30T01:28:44.535Z,0
2018-01-30T01:29:46.408Z,0
2018-01-30T01:30:48.270Z,0
2018-01-30T01:31:50.064Z,0
2018-01-30T01:32:51.851Z,0
2018-01-30T01:33:53.721Z,0
2018-01-30T01:34:55.565Z,0
2018-01-30T01:35:57.420Z,0
2018-01-30T01:37:11.542Z,0
2018-01-30T01:38:13.396Z,0
2018-01-30T01:39:15.266Z,0
2018-01-30T01:40:17.108Z,0
2018-01-30T01:41:18.901Z,0
2018-01-30T01:42:20.708Z,0
2018-01-30T01:43:22.560Z,0
2018-01-30T01:44:24.426Z,0
2018-01-30T01:45:26.270Z,0
2018-01-30T01:46:40.388Z,0
2018-01-30T01:47:42.242Z,0
2018-01-30T01:48:44.094Z,0
2018-01-30T01:49:45.951Z,0
2018-01-30T01:50:47.756Z,0
2018-01-30T01:51:49.567Z,0
2018-01-30T01:52:51.435Z,0
2018-01-30T01:53:53.283Z,0
2018-01-30T01:54:55.132Z,0
2018-01-30T01:56:09.318Z,0
2018-01-30T01:57:11.168Z,0
2018-01-30T01:58:13.042Z,0
2018-01-30T01:59:14.883Z,0
2018-01-30T02:00:16.692Z,0
2018-01-30T02:01:18.499Z,0
2018-01-30T02:02:20.345Z,0
2018-01-30T02:03:22.200Z,0
2018-01-30T02:04:24.064Z,0
2018-01-30T02:05:38.185Z,0
2018-01-30T02:06:40.037Z,0
2018-01-30T02:07:41.907Z,0
2018-01-30T02:08:43.752Z,0
2018-01-30T02:09:45.581Z,0
2018-01-30T02:10:47.349Z,0
2018-01-30T02:11:49.194Z,0
2018-01-30T02:12:51.066Z,0
2018-01-30T02:13:52.907Z,0
2018-01-30T02:15:07.034Z,0
2018-01-30T02:16:08.899Z,0
2018-01-30T02:17:10.754Z,0
2018-01-30T02:18:12.621Z,0
2018-01-30T02:19:14.429Z,0
2018-01-30T02:20:16.221Z,0
2018-01-30T02:21:18.086Z,0
2018-01-30T02:22:19.959Z,0
2018-01-30T02:23:21.826Z,0
2018-01-30T02:24:35.948Z,0
2018-01-30T02:25:37.816Z,0
2018-01-30T02:26:39.665Z,0
2018-01-30T02:27:41.517Z,0
2018-01-30T02:28:43.329Z,0
2018-01-30T02:29:45.138Z,0
2018-01-30T02:30:47.007Z,0
2018-01-30T02:31:48.875Z,0
2018-01-30T02:32:50.725Z,0
2018-01-30T02:34:04.842Z,0
2018-01-30T02:35:06.688Z,0
2018-01-30T02:36:08.539Z,0
2018-01-30T02:37:10.391Z,0
2018-01-30T02:38:12.200Z,0
2018-01-30T02:39:13.984Z,0
2018-01-30T02:40:15.836Z,0
2018-01-30T02:41:17.650Z,0
2018-01-30T02:42:19.457Z,0
2018-01-30T02:43:33.576Z,0
2018-01-30T02:44:35.425Z,0
2018-01-30T02:45:37.295Z,0
2018-01-30T02:46:39.161Z,0
2018-01-30T02:47:40.953Z,0
2018-01-30T02:48:42.745Z,0
2018-01-30T02:49:44.609Z,0
2018-01-30T02:50:46.460Z,0
2018-01-30T02:51:48.303Z,0
2018-01-30T02:53:02.427Z,0
2018-01-30T02:54:04.287Z,0
2018-01-30T02:55:06.133Z,0
2018-01-30T02:56:08.027Z,0
2018-01-30T02:57:09.776Z,0
2018-01-30T02:58:11.569Z,0
2018-01-30T02:59:13.432Z,0
2018-01-30T03:00:15.288Z,0
2018-01-30T03:01:17.153Z,0
2018-01-30T03:02:31.321Z,0
2018-01-30T03:03:33.219Z,0
2018-01-30T03:04:35.085Z,0
2018-01-30T03:05:36.931Z,0
2018-01-30T03:06:38.719Z,0
2018-01-30T03:07:40.509Z,0
2018-01-30T03:08:42.359Z,0
2018-01-30T03:09:44.233Z,0
2018-01-30T03:10:46.060Z,0
2018-01-30T03:12:00.230Z,0
2018-01-30T03:13:02.101Z,0
2018-01-30T03:14:03.968Z,0
2018-01-30T03:15:05.845Z,0
2018-01-30T03:16:07.655Z,0
2018-01-30T03:17:09.450Z,0
2018-01-30T03:18:11.301Z,0
2018-01-30T03:19:13.167Z,0
2018-01-30T03:20:15.024Z,0
2018-01-30T03:21:29.190Z,0
2018-01-30T03:22:31.057Z,0
2018-01-30T03:23:32.908Z,0
2018-01-30T03:24:34.753Z,0
2018-01-30T03:25:36.547Z,0
2018-01-30T03:26:38.354Z,0
2018-01-30T03:27:40.205Z,0
2018-01-30T03:28:42.067Z,0
2018-01-30T03:29:43.918Z,0
2018-01-30T03:30:58.109Z,0
2018-01-30T03:31:59.955Z,0
2018-01-30T03:33:01.821Z,0
2018-01-30T03:34:03.666Z,0
2018-01-30T03:35:05.457Z,0
2018-01-30T03:36:07.261Z,0
2018-01-30T03:37:09.109Z,0
2018-01-30T03:38:11.017Z,0
2018-01-30T03:39:12.868Z,0
2018-01-30T03:40:27.049Z,0
2018-01-30T03:41:28.901Z,0
2018-01-30T03:42:30.755Z,0
2018-01-30T03:43:32.647Z,0
2018-01-30T03:44:34.439Z,0
2018-01-30T03:45:36.249Z,0
2018-01-30T03:46:38.111Z,0
2018-01-30T03:47:39.957Z,0
2018-01-30T03:48:41.813Z,0
2018-01-30T03:49:55.957Z,0
2018-01-30T03:50:57.821Z,0
2018-01-30T03:51:59.670Z,0
2018-01-30T03:53:01.518Z,0
2018-01-30T03:54:03.307Z,0
2018-01-30T03:55:05.100Z,0
2018-01-30T03:56:06.963Z,0
2018-01-30T03:57:08.811Z,0
2018-01-30T03:58:10.667Z,0
2018-01-30T03:59:24.786Z,0
2018-01-30T04:00:26.659Z,0
2018-01-30T04:01:28.506Z,0
2018-01-30T04:02:30.354Z,0
2018-01-30T04:03:32.149Z,0
2018-01-30T04:04:33.961Z,0
2018-01-30T04:05:35.828Z,0
2018-01-30T04:06:37.692Z,0
2018-01-30T04:07:39.542Z,0
2018-01-30T04:08:53.662Z,0
2018-01-30T04:09:55.512Z,0
2018-01-30T04:10:57.369Z,0
2018-01-30T04:11:59.220Z,0
2018-01-30T04:13:01.030Z,0
2018-01-30T04:14:02.817Z,0
2018-01-30T04:15:04.667Z,0
2018-01-30T04:16:06.514Z,0
2018-01-30T04:17:08.364Z,0
2018-01-30T04:18:22.483Z,0
2018-01-30T04:19:24.337Z,0
2018-01-30T04:20:26.189Z,0
2018-01-30T04:21:28.039Z,0
2018-01-30T04:22:29.850Z,0
2018-01-30T04:23:31.663Z,0
2018-01-30T04:24:33.515Z,0
2018-01-30T04:25:35.383Z,0
2018-01-30T04:26:37.233Z,0
2018-01-30T04:27:51.371Z,0
2018-01-30T04:28:53.247Z,0
2018-01-30T04:29:55.098Z,0
2018-01-30T04:30:56.970Z,0
2018-01-30T04:31:58.756Z,0
2018-01-30T04:33:00.549Z,0
2018-01-30T04:34:02.416Z,0
2018-01-30T04:35:04.272Z,0
2018-01-30T04:36:06.145Z,0
2018-01-30T04:37:20.284Z,0
2018-01-30T04:38:22.137Z,0
2018-01-30T04:39:24.002Z,0
2018-01-30T04:40:25.853Z,0
2018-01-30T04:41:27.645Z,0
2018-01-30T04:42:29.459Z,0
2018-01-30T04:43:31.325Z,0
2018-01-30T04:44:33.180Z,0
2018-01-30T04:45:35.046Z,0
2018-01-30T04:46:49.216Z,0
2018-01-30T04:47:51.090Z,0
2018-01-30T04:48:52.940Z,0
2018-01-30T04:49:54.789Z,0
2018-01-30T04:50:56.571Z,0
2018-01-30T04:51:58.361Z,0
2018-01-30T04:53:00.213Z,0
2018-01-30T04:54:02.067Z,0
2018-01-30T04:55:03.915Z,0
2018-01-30T04:56:18.029Z,0
2018-01-30T04:57:19.884Z,0
2018-01-30T04:58:21.740Z,0
2018-01-30T04:59:23.595Z,0
2018-01-30T05:00:25.404Z,0
2018-01-30T05:01:27.196Z,0
2018-01-30T05:02:29.038Z,0
2018-01-30T05:03:30.857Z,0
2018-01-30T05:04:32.695Z,0
2018-01-30T05:05:46.786Z,0
2018-01-30T05:06:48.641Z,0
2018-01-30T05:07:50.497Z,0
2018-01-30T05:08:52.369Z,0
2018-01-30T05:09:54.180Z,0
2018-01-30T05:10:55.982Z,0
2018-01-30T05:11:57.832Z,0
2018-01-30T05:12:59.698Z,0
2018-01-30T05:14:01.559Z,0
2018-01-30T05:15:15.690Z,0
2018-01-30T05:16:17.545Z,0
2018-01-30T05:17:19.400Z,0
2018-01-30T05:18:21.256Z,0
2018-01-30T05:19:23.068Z,0
2018-01-30T05:20:24.877Z,0
2018-01-30T05:21:26.709Z,0
2018-01-30T05:22:28.558Z,0
2018-01-30T05:23:30.414Z,0
2018-01-30T05:24:44.551Z,0
2018-01-30T05:25:46.409Z,0
2018-01-30T05:26:48.277Z,0
2018-01-30T05:27:50.124Z,0
2018-01-30T05:28:51.917Z,0
2018-01-30T05:29:53.726Z,0
2018-01-30T05:30:55.572Z,0
2018-01-30T05:31:57.445Z,0
2018-01-30T05:32:59.313Z,0
2018-01-30T05:34:13.435Z,0
2018-01-30T05:35:15.292Z,0
2018-01-30T05:36:17.162Z,0
2018-01-30T05:37:19.015Z,0
2018-01-30T05:38:20.826Z,0
2018-01-30T05:39:22.657Z,0
2018-01-30T05:40:24.520Z,0
2018-01-30T05:41:26.374Z,0
2018-01-30T05:42:28.229Z,0
2018-01-30T05:43:42.347Z,0
2018-01-30T05:44:44.219Z,0
2018-01-30T05:45:46.068Z,0
2018-01-30T05:46:47.936Z,0
2018-01-30T05:47:49.733Z,0
2018-01-30T05:48:51.541Z,0
2018-01-30T05:49:53.408Z,0
2018-01-30T05:50:55.262Z,0
2018-01-30T05:51:57.130Z,0
2018-01-30T05:53:11.302Z,0
2018-01-30T05:54:13.169Z,0
2018-01-30T05:55:15.024Z,0
2018-01-30T05:56:16.871Z,0
2018-01-30T05:57:18.781Z,0
2018-01-30T05:58:20.685Z,0
2018-01-30T05:59:22.552Z,0
2018-01-30T06:00:24.408Z,0
2018-01-30T06:01:26.283Z,0
2018-01-30T06:02:40.402Z,0
2018-01-30T06:03:42.246Z,0
2018-01-30T06:04:44.103Z,0
2018-01-30T06:05:45.976Z,0
2018-01-30T06:06:47.787Z,0
2018-01-30T06:07:49.598Z,0
2018-01-30T06:08:51.453Z,0
2018-01-30T06:09:53.323Z,0
2018-01-30T06:10:55.196Z,0
2018-01-30T06:12:09.368Z,0
2018-01-30T06:13:11.238Z,0
2018-01-30T06:14:13.091Z,0
2018-01-30T06:15:14.959Z,0
2018-01-30T06:16:16.749Z,0
2018-01-30T06:17:18.539Z,0
2018-01-30T06:18:20.409Z,0
2018-01-30T06:19:22.262Z,0
2018-01-30T06:20:24.134Z,0
2018-01-30T06:21:38.249Z,0
2018-01-30T06:22:40.107Z,0
2018-01-30T06:23:41.956Z,0
2018-01-30T06:24:43.809Z,0
2018-01-30T06:25:45.604Z,0
2018-01-30T06:26:47.415Z,0
2018-01-30T06:27:49.289Z,0
2018-01-30T06:28:51.155Z,0
2018-01-30T06:29:53.016Z,0
2018-01-30T06:31:07.155Z,0
2018-01-30T06:32:09.019Z,0
2018-01-30T06:33:10.867Z,0
2018-01-30T06:34:12.721Z,0
2018-01-30T06:35:14.512Z,0
2018-01-30T06:36:16.302Z,0
2018-01-30T06:37:18.175Z,5
2018-01-30T06:38:20.051Z,5
2018-01-30T06:39:21.924Z,5
2018-01-30T06:40:36.043Z,5
2018-01-30T06:41:37.918Z,5
2018-01-30T06:42:39.788Z,5
2018-01-30T06:43:41.650Z,5
2018-01-30T06:44:43.462Z,5
2018-01-30T06:45:45.255Z,5
2018-01-30T06:46:47.126Z,5
2018-01-30T06:47:48.975Z,5
2018-01-30T06:48:50.834Z,10
2018-01-30T06:50:04.973Z,10
2018-01-30T06:51:06.830Z,10
2018-01-30T06:52:08.687Z,10
2018-01-30T06:53:10.539Z,10
2018-01-30T06:54:12.332Z,10
2018-01-30T06:55:14.123Z,10
2018-01-30T06:56:15.984Z,10
2018-01-30T06:57:17.829Z,15
2018-01-30T06:58:19.688Z,15
2018-01-30T06:59:33.816Z,10
2018-01-30T07:00:35.674Z,10
2018-01-30T07:01:37.546Z,10
2018-01-30T07:02:39.400Z,10
2018-01-30T07:03:41.193Z,15
2018-01-30T07:04:42.988Z,15
2018-01-30T07:05:44.834Z,15
2018-01-30T07:06:46.694Z,15
2018-01-30T07:07:48.551Z,15
2018-01-30T07:09:02.676Z,15
2018-01-30T07:10:04.533Z,15
2018-01-30T07:11:06.393Z,15
2018-01-30T07:12:08.302Z,15
2018-01-30T07:13:10.062Z,15
2018-01-30T07:14:11.852Z,20
2018-01-30T07:15:13.701Z,20
2018-01-30T07:16:15.554Z,25
2018-01-30T07:17:17.407Z,25
2018-01-30T07:18:31.531Z,30
2018-01-30T07:19:33.384Z,25
2018-01-30T07:20:35.242Z,25
2018-01-30T07:21:37.113Z,25
2018-01-30T07:22:38.907Z,25
2018-01-30T07:23:40.701Z,25
2018-01-30T07:24:42.555Z,30
2018-01-30T07:25:44.433Z,45
2018-01-30T07:26:46.289Z,50
2018-01-30T07:28:00.436Z,45
2018-01-30T07:29:02.293Z,40
2018-01-30T07:30:04.148Z,40
2018-01-30T07:31:06.032Z,35
2018-01-30T07:32:07.822Z,35
2018-01-30T07:33:09.644Z,40
2018-01-30T07:34:11.513Z,45
2018-01-30T07:35:13.383Z,50
2018-01-30T07:36:15.245Z,55
2018-01-30T07:37:29.373Z,60
2018-01-30T07:38:31.226Z,65
2018-01-30T07:39:33.080Z,70
2018-01-30T07:40:34.939Z,70
2018-01-30T07:41:36.736Z,85
2018-01-30T07:42:38.530Z,100
2018-01-30T07:43:40.398Z,110
2018-01-30T07:44:42.252Z,115
2018-01-30T07:45:44.114Z,110
2018-01-30T07:46:58.241Z,115
2018-01-30T07:48:00.096Z,115
2018-01-30T07:49:01.953Z,120
2018-01-30T07:50:03.826Z,120
2018-01-30T07:51:05.627Z,125
2018-01-30T07:52:07.443Z,130
2018-01-30T07:53:09.317Z,115
2018-01-30T07:54:11.189Z,120
2018-01-30T07:55:13.052Z,125
2018-01-30T07:56:27.247Z,125
2018-01-30T07:57:29.123Z,115
2018-01-30T07:58:30.980Z,130
2018-01-30T07:59:32.840Z,125
2018-01-30T08:00:34.632Z,100
2018-01-30T08:01:36.430Z,100
2018-01-30T08:02:38.288Z,90
2018-01-30T08:03:40.162Z,95
2018-01-30T08:04:42.015Z,90
2018-01-30T08:05:56.213Z,95
2018-01-30T08:06:58.086Z,125
2018-01-30T08:07:59.942Z,135
2018-01-30T08:09:01.816Z,135
2018-01-30T08:10:03.616Z,130
2018-01-30T08:11:05.427Z,130
2018-01-30T08:12:07.279Z,140
2018-01-30T08:13:09.135Z,155
2018-01-30T08:14:11.019Z,165
2018-01-30T08:15:25.207Z,180
2018-01-30T08:16:27.065Z,170
2018-01-30T08:17:28.922Z,155
2018-01-30T08:18:30.796Z,135
2018-01-30T08:19:32.611Z,135
2018-01-30T08:20:34.408Z,140
2018-01-30T08:21:36.255Z,165
2018-01-30T08:22:38.110Z,170
2018-01-30T08:23:39.971Z,160
2018-01-30T08:24:54.096Z,170
2018-01-30T08:25:55.954Z,150
2018-01-30T08:26:57.814Z,175
2018-01-30T08:27:59.667Z,155
2018-01-30T08:29:01.466Z,115
2018-01-30T08:30:03.281Z,105
2018-01-30T08:31:05.151Z,110
2018-01-30T08:32:07.010Z,130
2018-01-30T08:33:08.890Z,135
2018-01-30T08:34:23.038Z,100
2018-01-30T08:35:24.892Z,80
2018-01-30T08:36:26.743Z,80
2018-01-30T08:37:28.600Z,80
2018-01-30T08:38:30.421Z,80
2018-01-30T08:39:32.239Z,95
2018-01-30T08:40:34.114Z,80
2018-01-30T08:41:36.017Z,70
2018-01-30T08:42:37.867Z,70
2018-01-30T08:43:52.027Z,75
2018-01-30T08:44:53.863Z,80
2018-01-30T08:45:55.721Z,85
2018-01-30T08:46:57.572Z,95
2018-01-30T08:47:59.372Z,90
2018-01-30T08:49:01.186Z,95
2018-01-30T08:50:03.037Z,85
2018-01-30T08:51:04.910Z,75
2018-01-30T08:52:06.767Z,75
2018-01-30T08:53:20.910Z,90
2018-01-30T08:54:22.766Z,95
2018-01-30T08:55:24.630Z,95
2018-01-30T08:56:26.501Z,100
2018-01-30T08:57:28.297Z,95
2018-01-30T08:58:30.090Z,80
2018-01-30T08:59:31.943Z,85
2018-01-30T09:00:33.796Z,80
2018-01-30T09:01:35.654Z,85
2018-01-30T09:02:49.776Z,95
2018-01-30T09:03:51.637Z,100
2018-01-30T09:04:53.511Z,120
2018-01-30T09:05:55.394Z,135
2018-01-30T09:06:57.208Z,135
2018-01-30T09:07:59.006Z,145
2018-01-30T09:09:00.874Z,150
2018-01-30T09:10:02.728Z,145
2018-01-30T09:11:04.592Z,160
2018-01-30T09:12:18.774Z,160
2018-01-30T09:13:20.590Z,170
2018-01-30T09:14:22.470Z,180
2018-01-30T09:15:24.346Z,170
2018-01-30T09:16:26.148Z,155
2018-01-30T09:17:27.960Z,160
2018-01-30T09:18:29.830Z,195
2018-01-30T09:19:31.692Z,205
2018-01-30T09:20:33.575Z,215
2018-01-30T09:21:47.715Z,210
2018-01-30T09:22:49.576Z,195
2018-01-30T09:23:51.448Z,195
2018-01-30T09:24:53.307Z,205
2018-01-30T09:25:55.107Z,215
2018-01-30T09:26:56.897Z,230
2018-01-30T09:27:58.753Z,235
2018-01-30T09:29:00.605Z,245
2018-01-30T09:30:02.468Z,250
2018-01-30T09:31:16.612Z,250
2018-01-30T09:32:18.469Z,225
2018-01-30T09:33:20.347Z,215
2018-01-30T09:34:22.220Z,215
2018-01-30T09:35:24.032Z,205
2018-01-30T09:36:25.831Z,180
2018-01-30T09:37:27.688Z,185
2018-01-30T09:38:29.564Z,205
2018-01-30T09:39:31.425Z,225
2018-01-30T09:40:45.548Z,240
2018-01-30T09:41:47.408Z,230
2018-01-30T09:42:49.267Z,230
2018-01-30T09:43:51.123Z,215
2018-01-30T09:44:52.936Z,195
2018-01-30T09:45:54.734Z,190
2018-01-30T09:46:56.611Z,205
2018-01-30T09:47:58.464Z,185
2018-01-30T09:49:00.323Z,190
2018-01-30T09:50:14.450Z,225
2018-01-30T09:51:16.315Z,225
2018-01-30T09:52:18.170Z,205
2018-01-30T09:53:20.043Z,200
2018-01-30T09:54:21.845Z,220
2018-01-30T09:55:23.663Z,230
2018-01-30T09:56:25.536Z,240
2018-01-30T09:57:27.393Z,250
2018-01-30T09:58:29.245Z,255
2018-01-30T09:59:43.367Z,245
2018-01-30T10:00:45.228Z,255
2018-01-30T10:01:47.086Z,240
2018-01-30T10:02:48.944Z,240
2018-01-30T10:03:50.766Z,265
2018-01-30T10:04:52.582Z,260
2018-01-30T10:05:54.449Z,265
2018-01-30T10:06:56.265Z,260
2018-01-30T10:07:58.104Z,255
2018-01-30T10:09:12.228Z,280
2018-01-30T10:10:14.089Z,280
2018-01-30T10:11:15.967Z,280
2018-01-30T10:12:17.819Z,270
2018-01-30T10:13:19.623Z,255
2018-01-30T10:14:21.407Z,245
2018-01-30T10:15:23.268Z,270
2018-01-30T10:16:25.115Z,295
2018-01-30T10:17:26.975Z,285
2018-01-30T10:18:41.109Z,265
2018-01-30T10:19:42.983Z,280
2018-01-30T10:20:44.842Z,310
2018-01-30T10:21:46.696Z,275
2018-01-30T10:22:48.500Z,260
2018-01-30T10:23:50.312Z,250
2018-01-30T10:24:52.170Z,225
2018-01-30T10:25:53.988Z,240
2018-01-30T10:26:55.805Z,265
2018-01-30T10:28:09.949Z,290
2018-01-30T10:29:11.813Z,295
2018-01-30T10:30:13.684Z,280
2018-01-30T10:31:15.543Z,240
2018-01-30T10:32:17.342Z,245
2018-01-30T10:33:19.160Z,250
2018-01-30T10:34:21.032Z,205
2018-01-30T10:35:22.895Z,200
2018-01-30T10:36:24.752Z,165
2018-01-30T10:37:38.873Z,175
2018-01-30T10:38:40.736Z,170
2018-01-30T10:39:42.595Z,140
2018-01-30T10:40:44.470Z,165
2018-01-30T10:41:46.268Z,225
2018-01-30T10:42:48.069Z,270
2018-01-30T10:43:49.923Z,260
2018-01-30T10:44:51.776Z,265
2018-01-30T10:45:53.636Z,270
2018-01-30T10:47:07.777Z,235
2018-01-30T10:48:09.643Z,260
2018-01-30T10:49:11.493Z,255
2018-01-30T10:50:13.348Z,265
2018-01-30T10:51:15.148Z,265
2018-01-30T10:52:16.944Z,250
2018-01-30T10:53:18.821Z,265
2018-01-30T10:54:20.697Z,275
2018-01-30T10:55:22.583Z,275
2018-01-30T10:56:36.726Z,245
2018-01-30T10:57:38.585Z,240
2018-01-30T10:58:40.466Z,245
2018-01-30T10:59:42.346Z,230
2018-01-30T11:00:44.133Z,240
2018-01-30T11:01:45.933Z,250
2018-01-30T11:02:47.805Z,260
2018-01-30T11:03:49.666Z,265
2018-01-30T11:04:51.545Z,255
2018-01-30T11:06:05.688Z,250
2018-01-30T11:07:07.551Z,260
2018-01-30T11:08:09.411Z,245
2018-01-30T11:09:11.289Z,245
2018-01-30T11:10:13.163Z,235
2018-01-30T11:11:14.934Z,245
2018-01-30T11:12:16.793Z,245
2018-01-30T11:13:18.648Z,255
2018-01-30T11:14:20.512Z,240
2018-01-30T11:15:34.635Z,215
2018-01-30T11:16:36.496Z,215
2018-01-30T11:17:38.356Z,220
2018-01-30T11:18:40.233Z,240
2018-01-30T11:19:42.051Z,250
2018-01-30T11:20:43.865Z,235
2018-01-30T11:21:45.742Z,230
2018-01-30T11:22:47.597Z,235
2018-01-30T11:23:49.471Z,250
2018-01-30T11:25:03.599Z,275
2018-01-30T11:26:05.455Z,280
2018-01-30T11:27:07.319Z,270
2018-01-30T11:28:09.197Z,320
2018-01-30T11:29:11.014Z,350
2018-01-30T11:30:12.812Z,335
2018-01-30T11:31:14.687Z,330
2018-01-30T11:32:16.568Z,265
2018-01-30T11:33:18.442Z,260
2018-01-30T11:34:32.573Z,305
2018-01-30T11:35:34.453Z,310
2018-01-30T11:36:36.308Z,300
2018-01-30T11:37:38.194Z,305
2018-01-30T11:38:39.987Z,295
2018-01-30T11:39:41.787Z,255
2018-01-30T11:40:43.663Z,275
2018-01-30T11:41:45.535Z,280
2018-01-30T11:42:47.399Z,285
2018-01-30T11:44:01.542Z,280
2018-01-30T11:45:03.425Z,270
2018-01-30T11:46:05.301Z,255
2018-01-30T11:47:07.162Z,240
2018-01-30T11:48:08.980Z,230
2018-01-30T11:49:10.797Z,225
2018-01-30T11:50:12.675Z,240
2018-01-30T11:51:14.549Z,230
2018-01-30T11:52:16.407Z,230
2018-01-30T11:53:30.556Z,260
2018-01-30T11:54:32.411Z,285
2018-01-30T11:55:34.269Z,255
2018-01-30T11:56:36.145Z,260
2018-01-30T11:57:37.949Z,280
2018-01-30T11:58:39.764Z,260
2018-01-30T11:59:41.619Z,245
2018-01-30T12:00:43.493Z,230
2018-01-30T12:01:45.368Z,255
2018-01-30T12:02:59.503Z,265
2018-01-30T12:04:01.381Z,275
2018-01-30T12:05:03.254Z,265
2018-01-30T12:06:05.113Z,285
2018-01-30T12:07:06.914Z,275
2018-01-30T12:08:08.733Z,235
2018-01-30T12:09:10.605Z,215
2018-01-30T12:10:12.458Z,210
2018-01-30T12:11:14.324Z,205
2018-01-30T12:12:28.471Z,195
2018-01-30T12:13:30.350Z,175
2018-01-30T12:14:32.226Z,165
2018-01-30T12:15:34.084Z,170
2018-01-30T12:16:35.882Z,175
2018-01-30T12:17:37.683Z,185
2018-01-30T12:18:39.554Z,170
2018-01-30T12:19:41.433Z,170
2018-01-30T12:20:43.316Z,180
2018-01-30T12:21:57.462Z,155
2018-01-30T12:22:59.328Z,155
2018-01-30T12:24:01.206Z,150
2018-01-30T12:25:03.084Z,135
2018-01-30T12:26:04.899Z,150
2018-01-30T12:27:06.695Z,150
2018-01-30T12:28:08.569Z,155
2018-01-30T12:29:10.425Z,170
2018-01-30T12:30:12.285Z,190
2018-01-30T12:31:26.436Z,190
2018-01-30T12:32:28.311Z,195
2018-01-30T12:33:30.166Z,170
2018-01-30T12:34:32.024Z,155
2018-01-30T12:35:33.823Z,150
2018-01-30T12:36:35.615Z,160
2018-01-30T12:37:37.474Z,180
2018-01-30T12:38:39.325Z,200
2018-01-30T12:39:41.189Z,205
2018-01-30T12:40:55.313Z,180
2018-01-30T12:41:57.188Z,155
2018-01-30T12:42:59.049Z,165
2018-01-30T12:44:00.931Z,210
2018-01-30T12:45:02.761Z,215
2018-01-30T12:46:04.585Z,190
2018-01-30T12:47:06.456Z,180
2018-01-30T12:48:08.339Z,160
2018-01-30T12:49:10.220Z,150
2018-01-30T12:50:24.393Z,155
2018-01-30T12:51:26.268Z,170
2018-01-30T12:52:28.129Z,185
2018-01-30T12:53:29.991Z,205
2018-01-30T12:54:31.823Z,210
2018-01-30T12:55:33.630Z,205
2018-01-30T12:56:35.490Z,190
2018-01-30T12:57:37.369Z,170
2018-01-30T12:58:39.249Z,165
2018-01-30T12:59:53.432Z,145
2018-01-30T13:00:55.313Z,155
2018-01-30T13:01:57.192Z,140
2018-01-30T13:02:59.072Z,125
2018-01-30T13:04:00.887Z,130
2018-01-30T13:05:02.683Z,145
2018-01-30T13:06:04.544Z,145
2018-01-30T13:07:06.414Z,140
2018-01-30T13:08:08.532Z,135
2018-01-30T13:09:22.675Z,120
2018-01-30T13:10:24.538Z,125
2018-01-30T13:11:26.412Z,140
2018-01-30T13:12:28.272Z,145
2018-01-30T13:13:30.091Z,145
2018-01-30T13:14:31.907Z,160
2018-01-30T13:15:33.783Z,160
2018-01-30T13:16:35.633Z,145
2018-01-30T13:17:37.494Z,140
2018-01-30T13:18:51.621Z,160
2018-01-30T13:19:53.476Z,145
2018-01-30T13:20:55.339Z,140
2018-01-30T13:21:57.217Z,155
2018-01-30T13:22:59.083Z,165
2018-01-30T13:24:00.831Z,175
2018-01-30T13:25:02.705Z,175
2018-01-30T13:26:04.549Z,195
2018-01-30T13:27:06.364Z,205
2018-01-30T13:28:20.508Z,210
2018-01-30T13:29:22.372Z,200
2018-01-30T13:30:24.225Z,185
2018-01-30T13:31:26.083Z,185
2018-01-30T13:32:27.899Z,185
2018-01-30T13:33:29.717Z,180
2018-01-30T13:34:31.596Z,165
2018-01-30T13:35:33.450Z,155
2018-01-30T13:36:35.324Z,145
2018-01-30T13:37:49.462Z,150
2018-01-30T13:38:51.333Z,145
2018-01-30T13:39:53.196Z,140
2018-01-30T13:40:55.119Z,145
2018-01-30T13:41:56.881Z,160
2018-01-30T13:42:58.680Z,170
2018-01-30T13:44:00.572Z,180
2018-01-30T13:45:02.425Z,175
2018-01-30T13:46:04.284Z,160
2018-01-30T13:47:18.411Z,155
2018-01-30T13:48:20.290Z,160
2018-01-30T13:49:22.169Z,165
2018-01-30T13:50:24.047Z,170
2018-01-30T13:51:25.865Z,170
2018-01-30T13:52:27.685Z,165
2018-01-30T13:53:29.535Z,160
2018-01-30T13:54:31.390Z,150
2018-01-30T13:55:33.250Z,140
2018-01-30T13:56:47.375Z,135
2018-01-30T13:57:49.230Z,145
2018-01-30T13:58:51.095Z,155
2018-01-30T13:59:52.945Z,165
2018-01-30T14:00:54.745Z,170
2018-01-30T14:01:56.542Z,175
2018-01-30T14:02:58.401Z,175
2018-01-30T14:04:00.299Z,175
2018-01-30T14:05:02.162Z,175
2018-01-30T14:06:16.390Z,170
2018-01-30T14:07:18.247Z,160
2018-01-30T14:08:20.126Z,160
2018-01-30T14:09:21.977Z,160
2018-01-30T14:10:23.782Z,155
2018-01-30T14:11:25.626Z,150
2018-01-30T14:12:27.491Z,145
2018-01-30T14:13:29.362Z,140
2018-01-30T14:14:31.234Z,135
2018-01-30T14:15:45.383Z,130
2018-01-30T14:16:47.259Z,130
2018-01-30T14:17:49.117Z,135
2018-01-30T14:18:50.972Z,140
2018-01-30T14:19:52.768Z,130
2018-01-30T14:20:54.566Z,120
2018-01-30T14:21:56.437Z,125
2018-01-30T14:22:58.296Z,125
2018-01-30T14:24:00.159Z,120
2018-01-30T14:25:14.303Z,120
2018-01-30T14:26:16.182Z,125
2018-01-30T14:27:18.094Z,130
2018-01-30T14:28:19.966Z,135
2018-01-30T14:29:21.815Z,130
2018-01-30T14:30:23.633Z,130
2018-01-30T14:31:25.500Z,120
2018-01-30T14:32:27.362Z,110
2018-01-30T14:33:29.244Z,110
2018-01-30T14:34:43.372Z,105
2018-01-30T14:35:45.247Z,100
2018-01-30T14:36:47.106Z,110
2018-01-30T14:37:48.963Z,115
2018-01-30T14:38:50.764Z,115
2018-01-30T14:39:52.553Z,115
2018-01-30T14:40:54.413Z,115
2018-01-30T14:41:56.267Z,115
2018-01-30T14:42:58.109Z,110
2018-01-30T14:44:12.250Z,115
2018-01-30T14:45:14.118Z,115
2018-01-30T14:46:15.974Z,120
2018-01-30T14:47:17.827Z,125
2018-01-30T14:48:19.626Z,130
2018-01-30T14:49:21.422Z,125
2018-01-30T14:50:23.293Z,120
2018-01-30T14:51:25.157Z,120
2018-01-30T14:52:27.031Z,120
2018-01-30T14:53:41.168Z,120
2018-01-30T14:54:43.021Z,120
2018-01-30T14:55:44.885Z,115
2018-01-30T14:56:46.759Z,115
2018-01-30T14:57:48.557Z,115
2018-01-30T14:58:50.356Z,115
2018-01-30T14:59:52.248Z,110
2018-01-30T15:00:54.150Z,110